createdAt,value
2023-02-06T00:00:55.386Z,31.67
2023-02-06T00:03:22.096Z,29.08
2023-02-06T00:05:59.607Z,30.38
2023-02-06T00:08:27.094Z,29.95
2023-02-06T00:10:53.956Z,30.33
2023-02-06T00:13:20.805Z,30.58
2023-02-06T00:15:47.640Z,29.70
2023-02-06T00:18:15.575Z,31.95
2023-02-06T00:20:42.377Z,30.00
2023-02-06T00:23:09.125Z,30.73
2023-02-06T00:25:36.123Z,30.10
2023-02-06T00:28:03.010Z,29.15
2023-02-06T00:30:29.792Z,30.20
2023-02-06T00:32:56.570Z,30.00
2023-02-06T00:35:23.266Z,28.92
2023-02-06T00:37:50.946Z,30.17
2023-02-06T00:40:18.366Z,29.35
2023-02-06T00:42:45.092Z,30.10
2023-02-06T00:45:11.897Z,29.33
2023-02-06T00:47:38.621Z,30.17
2023-02-06T00:50:06.195Z,31.42
2023-02-06T00:52:32.895Z,30.20
2023-02-06T00:54:59.590Z,30.73
2023-02-06T00:57:26.335Z,29.63
2023-02-06T00:59:54.446Z,29.27
2023-02-06T01:02:21.223Z,28.90
2023-02-06T01:04:47.931Z,28.77
2023-02-06T01:07:15.061Z,28.73
2023-02-06T01:09:41.784Z,30.50
2023-02-06T01:12:08.821Z,28.45
2023-02-06T01:14:35.702Z,28.90
2023-02-06T01:17:02.708Z,29.88
2023-02-06T01:19:29.371Z,29.50
2023-02-06T01:21:56.092Z,28.48
2023-02-06T01:24:23.332Z,30.13
2023-02-06T01:26:50.692Z,29.98
2023-02-06T01:29:17.406Z,31.40
2023-02-06T01:31:44.154Z,31.05
2023-02-06T01:34:11.074Z,30.23
2023-02-06T01:36:38.127Z,31.70
2023-02-06T01:39:06.354Z,31.88
2023-02-06T01:41:33.176Z,32.00
2023-02-06T01:44:19.186Z,31.35
2023-02-06T01:46:47.632Z,30.13
2023-02-06T01:49:29.236Z,31.60
2023-02-06T01:51:59.392Z,29.90
2023-02-06T01:54:26.151Z,30.77
2023-02-06T01:56:55.110Z,30.77
2023-02-06T01:59:21.816Z,30.58
2023-02-06T02:01:48.586Z,31.45
2023-02-06T02:04:18.244Z,33.65
2023-02-06T02:06:47.228Z,32.25
2023-02-06T02:09:14.429Z,33.17
2023-02-06T02:11:43.277Z,31.20
2023-02-06T02:14:12.054Z,32.95
2023-02-06T02:16:57.399Z,32.17
2023-02-06T02:19:45.487Z,31.42
2023-02-06T02:22:44.965Z,31.70
2023-02-06T02:25:26.916Z,31.63
2023-02-06T02:28:17.873Z,32.15
2023-02-06T02:31:03.344Z,34.15
2023-02-06T02:33:56.373Z,32.03
2023-02-06T02:36:38.725Z,32.97
2023-02-06T02:39:30.127Z,32.63
2023-02-06T02:42:06.294Z,32.80
2023-02-06T02:44:42.419Z,31.77
2023-02-06T02:47:10.406Z,32.67
2023-02-06T02:49:37.367Z,33.42
2023-02-06T02:52:04.311Z,34.53
2023-02-06T02:54:31.066Z,32.97
2023-02-06T02:57:01.708Z,34.05
2023-02-06T02:59:31.840Z,33.05
2023-02-06T03:02:08.143Z,31.20
2023-02-06T03:04:59.004Z,32.55
2023-02-06T03:07:40.789Z,33.72
2023-02-06T03:10:31.882Z,32.05
2023-02-06T03:13:16.336Z,33.42
2023-02-06T03:15:50.523Z,31.77
2023-02-06T03:18:19.061Z,32.25
2023-02-06T03:20:47.292Z,31.90
2023-02-06T03:23:17.568Z,32.08
2023-02-06T03:25:44.986Z,31.63
2023-02-06T03:28:18.112Z,33.03
2023-02-06T03:33:13.421Z,30.88
2023-02-06T03:35:40.562Z,32.10
2023-02-06T03:38:08.106Z,32.00
2023-02-06T03:40:35.123Z,30.58
2023-02-06T03:43:03.313Z,31.95
2023-02-06T03:45:35.235Z,33.53
2023-02-06T03:48:25.801Z,33.42
2023-02-06T03:50:54.430Z,33.33
2023-02-06T03:53:22.475Z,34.90
2023-02-06T03:55:50.774Z,34.45
2023-02-06T03:58:17.415Z,34.72
2023-02-06T04:00:44.301Z,34.22
2023-02-06T04:03:11.433Z,34.20
2023-02-06T04:05:38.471Z,34.60
2023-02-06T04:08:05.408Z,34.40
2023-02-06T04:10:32.100Z,32.40
2023-02-06T04:12:58.735Z,32.97
2023-02-06T04:15:25.526Z,33.88
2023-02-06T04:18:00.433Z,33.72
2023-02-06T04:20:28.451Z,35.00
2023-02-06T04:22:55.368Z,35.00
2023-02-06T04:25:23.292Z,34.88
2023-02-06T04:27:50.910Z,35.30
2023-02-06T04:30:18.745Z,34.05
2023-02-06T04:32:45.832Z,36.08
2023-02-06T04:35:13.184Z,34.90
2023-02-06T04:37:39.887Z,33.10
2023-02-06T04:40:07.205Z,33.50
2023-02-06T04:42:33.997Z,33.50
2023-02-06T04:45:00.762Z,32.05
2023-02-06T04:47:27.550Z,32.70
2023-02-06T04:49:54.584Z,31.77
2023-02-06T04:52:21.276Z,31.92
2023-02-06T04:54:48.065Z,32.15
2023-02-06T04:57:14.779Z,32.90
2023-02-06T04:59:41.483Z,32.70
2023-02-06T05:02:08.168Z,31.48
2023-02-06T05:04:34.936Z,31.30
2023-02-06T05:07:02.709Z,31.08
2023-02-06T05:09:30.700Z,30.20
2023-02-06T05:11:57.395Z,29.92
2023-02-06T05:14:24.131Z,31.42
2023-02-06T05:16:51.422Z,30.80
2023-02-06T05:19:18.231Z,30.50
2023-02-06T05:21:44.923Z,28.52
2023-02-06T05:24:11.604Z,28.67
2023-02-06T05:26:38.409Z,29.70
2023-02-06T05:29:05.097Z,28.17
2023-02-06T05:31:31.941Z,31.20
2023-02-06T05:33:58.730Z,29.02
2023-02-06T05:36:25.524Z,29.67
2023-02-06T05:38:52.329Z,28.65
2023-02-06T05:41:19.062Z,31.17
2023-02-06T05:43:46.055Z,31.73
2023-02-06T05:46:13.536Z,30.80
2023-02-06T05:48:40.843Z,28.95
2023-02-06T05:51:07.747Z,29.27
2023-02-06T05:53:37.428Z,27.27
2023-02-06T05:56:05.520Z,31.63
2023-02-06T05:58:32.363Z,30.20
2023-02-06T06:00:59.179Z,30.23
2023-02-06T06:03:26.023Z,28.90
2023-02-06T06:05:53.611Z,26.95
2023-02-06T06:08:20.469Z,26.92
2023-02-06T06:10:49.697Z,26.77
2023-02-06T06:13:16.559Z,27.65
2023-02-06T06:15:43.696Z,27.60
2023-02-06T06:18:11.248Z,27.00
2023-02-06T06:20:38.024Z,26.70
2023-02-06T06:23:04.732Z,25.95
2023-02-06T06:25:31.447Z,25.55
2023-02-06T06:27:58.172Z,25.75
2023-02-06T06:30:25.030Z,25.08
2023-02-06T06:32:52.761Z,26.42
2023-02-06T06:35:19.555Z,26.92
2023-02-06T06:37:46.201Z,26.15
2023-02-06T06:40:12.891Z,24.20
2023-02-06T06:42:39.602Z,26.15
2023-02-06T06:45:07.614Z,25.10
2023-02-06T06:47:34.377Z,25.88
2023-02-06T06:50:01.212Z,26.85
2023-02-06T06:52:28.120Z,25.83
2023-02-06T06:54:55.251Z,26.15
2023-02-06T06:57:22.419Z,25.83
2023-02-06T06:59:49.360Z,26.20
2023-02-06T07:02:16.419Z,25.60
2023-02-06T07:04:43.444Z,26.15
2023-02-06T07:07:10.617Z,25.88
2023-02-06T07:09:37.358Z,24.33
2023-02-06T07:12:04.509Z,25.10
2023-02-06T07:14:31.177Z,24.60
2023-02-06T07:16:59.294Z,23.65
2023-02-06T07:19:26.028Z,22.00
2023-02-06T07:21:52.729Z,23.85
2023-02-06T07:24:19.453Z,24.35
2023-02-06T07:26:46.212Z,23.02
2023-02-06T07:29:12.902Z,23.38
2023-02-06T07:31:39.844Z,23.23
2023-02-06T07:34:06.566Z,23.48
2023-02-06T07:36:33.319Z,22.35
2023-02-06T07:39:01.575Z,22.00
2023-02-06T07:41:28.277Z,21.35
2023-02-06T07:43:55.343Z,19.40
2023-02-06T07:46:22.263Z,20.27
2023-02-06T07:48:49.167Z,19.58
2023-02-06T07:51:16.059Z,19.08
2023-02-06T07:53:42.908Z,20.27
2023-02-06T07:56:14.527Z,19.02
2023-02-06T07:58:41.287Z,18.00
2023-02-06T08:01:08.305Z,16.58
2023-02-06T08:03:35.346Z,17.65
2023-02-06T08:06:11.165Z,14.95
2023-02-06T08:08:38.978Z,12.75
2023-02-06T08:11:08.162Z,11.95
2023-02-06T08:13:35.367Z,12.40
2023-02-06T08:16:12.552Z,11.95
2023-02-06T08:18:39.804Z,11.52
2023-02-06T08:21:12.256Z,10.40
2023-02-06T08:23:38.983Z,10.27
2023-02-06T08:26:13.917Z,10.82
2023-02-06T08:28:42.304Z,10.75
2023-02-06T08:31:13.591Z,9.77
2023-02-06T08:33:40.679Z,10.75
2023-02-06T08:36:08.183Z,10.38
2023-02-06T08:38:34.909Z,10.10
2023-02-06T08:41:01.633Z,9.85
2023-02-06T08:43:28.552Z,9.68
2023-02-06T08:45:59.693Z,10.38
2023-02-06T08:48:26.973Z,9.50
2023-02-06T08:51:04.824Z,9.98
2023-02-06T08:53:33.547Z,9.65
2023-02-06T08:56:02.242Z,9.77
2023-02-06T08:58:29.163Z,9.30
2023-02-06T09:00:56.163Z,10.32
2023-02-06T09:03:23.246Z,9.65
2023-02-06T09:05:50.823Z,8.82
2023-02-06T09:08:21.038Z,9.10
2023-02-06T09:10:48.200Z,9.40
2023-02-06T09:13:15.541Z,8.50
2023-02-06T09:15:43.456Z,8.00
2023-02-06T09:18:10.384Z,8.65
2023-02-06T09:20:37.096Z,8.50
2023-02-06T09:23:03.943Z,8.02
2023-02-06T09:25:30.786Z,7.85
2023-02-06T09:27:57.630Z,9.57
2023-02-06T09:30:25.507Z,9.10
2023-02-06T09:32:52.329Z,9.60
2023-02-06T09:35:19.160Z,9.27
2023-02-06T09:37:45.957Z,9.05
2023-02-06T09:40:12.996Z,8.40
2023-02-06T09:42:39.958Z,7.88
2023-02-06T09:45:09.687Z,8.93
2023-02-06T09:47:39.601Z,8.55
2023-02-06T09:50:16.409Z,7.75
2023-02-06T09:52:47.078Z,9.50
2023-02-06T09:55:38.704Z,9.15
2023-02-06T09:58:26.075Z,8.57
2023-02-06T10:01:00.919Z,8.82
2023-02-06T10:03:52.926Z,7.88
2023-02-06T10:06:28.255Z,7.80
2023-02-06T10:09:07.208Z,8.05
2023-02-06T10:11:33.878Z,7.72
2023-02-06T10:14:03.791Z,6.45
2023-02-06T10:16:39.668Z,6.30
2023-02-06T10:19:15.179Z,5.70
2023-02-06T10:22:06.017Z,4.68
2023-02-06T10:24:37.676Z,4.18
2023-02-06T10:27:09.169Z,4.53
2023-02-06T10:29:36.607Z,4.38
2023-02-06T10:32:28.344Z,3.53
2023-02-06T10:35:16.826Z,4.18
2023-02-06T10:38:16.326Z,3.65
2023-02-06T10:40:49.952Z,3.45
2023-02-06T10:43:33.079Z,3.22
2023-02-06T10:46:29.350Z,3.92
2023-02-06T10:49:22.578Z,3.97
2023-02-06T10:51:55.630Z,3.47
2023-02-06T10:54:40.242Z,3.55
2023-02-06T10:57:14.063Z,3.10
2023-02-06T10:59:48.241Z,3.63
2023-02-06T11:02:31.061Z,3.70
2023-02-06T11:05:09.885Z,3.58
2023-02-06T11:07:45.415Z,4.63
2023-02-06T11:10:18.657Z,4.18
2023-02-06T11:12:51.375Z,3.75
2023-02-06T11:15:25.971Z,4.22
2023-02-06T11:17:53.713Z,3.88
2023-02-06T11:20:24.187Z,3.83
2023-02-06T11:22:53.275Z,3.72
2023-02-06T11:25:28.034Z,3.90
2023-02-06T11:27:55.358Z,3.90
2023-02-06T11:30:27.360Z,4.35
2023-02-06T11:33:04.788Z,4.60
2023-02-06T11:35:40.151Z,3.72
2023-02-06T11:38:19.255Z,4.28
2023-02-06T11:41:06.670Z,4.45
2023-02-06T11:43:42.382Z,4.40
2023-02-06T11:46:26.436Z,4.40
2023-02-06T11:48:56.134Z,5.05
2023-02-06T11:51:23.653Z,4.90
2023-02-06T11:54:00.963Z,4.82
2023-02-06T11:56:28.469Z,5.75
2023-02-06T11:59:07.725Z,4.93
2023-02-06T12:01:43.187Z,4.50
2023-02-06T12:04:25.372Z,5.50
2023-02-06T12:07:03.321Z,5.50
2023-02-06T12:09:30.069Z,5.43
2023-02-06T12:12:25.929Z,4.80
2023-02-06T12:14:58.664Z,5.20
2023-02-06T12:17:31.487Z,5.43
2023-02-06T12:20:11.342Z,5.22
2023-02-06T12:22:44.346Z,5.72
2023-02-06T12:25:27.780Z,5.75
2023-02-06T12:30:46.077Z,6.70
2023-02-06T12:33:22.236Z,6.45
2023-02-06T12:35:52.740Z,6.80
2023-02-06T12:38:40.936Z,7.18
2023-02-06T12:41:07.599Z,5.95
2023-02-06T12:43:34.695Z,4.95
2023-02-06T12:46:22.726Z,5.25
2023-02-06T12:48:55.567Z,4.22
2023-02-06T12:51:26.836Z,4.20
2023-02-06T12:54:01.992Z,3.85
2023-02-06T12:56:47.048Z,4.47
2023-02-06T12:59:16.790Z,3.90
2023-02-06T13:02:16.992Z,3.40
2023-02-06T13:04:43.899Z,3.60
2023-02-06T13:07:16.315Z,3.38
2023-02-06T13:10:08.927Z,3.15
2023-02-06T13:12:35.694Z,3.83
2023-02-06T13:15:07.520Z,2.95
2023-02-06T13:17:36.726Z,2.88
2023-02-06T13:20:07.724Z,3.22
2023-02-06T13:22:37.497Z,3.40
2023-02-06T13:25:25.995Z,3.10
2023-02-06T13:27:53.514Z,3.00
2023-02-06T13:30:29.533Z,3.10
2023-02-06T13:33:09.594Z,2.83
2023-02-06T13:35:37.533Z,3.28
2023-02-06T13:38:25.267Z,3.00
2023-02-06T13:41:16.726Z,2.97
2023-02-06T13:43:54.486Z,3.15
2023-02-06T13:46:23.290Z,3.50
2023-02-06T13:49:09.096Z,2.70
2023-02-06T13:52:15.374Z,2.30
2023-02-06T13:55:10.092Z,2.10
2023-02-06T13:58:21.897Z,2.25
2023-02-06T14:00:49.471Z,2.30
2023-02-06T14:03:24.065Z,2.58
2023-02-06T14:06:40.170Z,2.25
2023-02-06T14:09:30.657Z,2.53
2023-02-06T14:12:39.491Z,2.17
2023-02-06T14:15:22.032Z,2.78
2023-02-06T14:17:56.988Z,2.50
2023-02-06T14:20:33.616Z,2.83
2023-02-06T14:23:38.739Z,2.83
2023-02-06T14:26:09.841Z,2.67
2023-02-06T14:28:48.820Z,2.28
2023-02-06T14:31:22.016Z,3.20
2023-02-06T14:34:01.265Z,2.97
2023-02-06T14:36:33.164Z,3.05
2023-02-06T14:39:28.330Z,2.60
2023-02-06T14:41:55.685Z,2.80
2023-02-06T14:44:30.415Z,2.85
2023-02-06T14:46:57.899Z,3.17
2023-02-06T14:49:33.568Z,3.00
2023-02-06T14:52:01.686Z,3.00
2023-02-06T14:54:37.096Z,2.47
2023-02-06T14:57:17.931Z,2.42
2023-02-06T14:59:58.242Z,2.38
2023-02-06T15:02:35.438Z,2.70
2023-02-06T15:05:03.764Z,2.88
2023-02-06T15:07:36.230Z,2.60
2023-02-06T15:10:15.474Z,2.72
2023-02-06T15:12:42.404Z,2.60
2023-02-06T15:15:18.322Z,2.80
2023-02-06T15:18:02.431Z,2.40
2023-02-06T15:20:44.788Z,2.92
2023-02-06T15:23:22.548Z,2.92
2023-02-06T15:26:16.588Z,2.55
2023-02-06T15:28:43.262Z,2.90
2023-02-06T15:31:21.226Z,2.50
2023-02-06T15:33:54.576Z,2.10
2023-02-06T15:36:31.248Z,2.63
2023-02-06T15:38:59.397Z,2.83
2023-02-06T15:41:28.045Z,3.03
2023-02-06T15:44:15.247Z,2.47
2023-02-06T15:46:41.976Z,3.00
2023-02-06T15:49:17.055Z,3.40
2023-02-06T15:51:55.027Z,3.03
2023-02-06T15:54:24.302Z,2.65
2023-02-06T15:57:02.764Z,2.92
2023-02-06T15:59:29.731Z,3.20
2023-02-06T16:01:57.388Z,2.42
2023-02-06T16:04:35.250Z,3.00
2023-02-06T16:07:19.415Z,2.78
2023-02-06T16:10:09.446Z,2.35
2023-02-06T16:12:37.665Z,2.85
2023-02-06T16:15:31.586Z,3.15
2023-02-06T16:18:00.195Z,2.78
2023-02-06T16:20:39.647Z,3.75
2023-02-06T16:23:27.506Z,13.98
2023-02-06T16:26:01.958Z,12.07
2023-02-06T16:28:30.176Z,8.77
2023-02-06T16:31:00.401Z,4.75
2023-02-06T16:33:34.526Z,4.00
2023-02-06T16:36:01.671Z,3.30
2023-02-06T16:38:31.645Z,2.47
2023-02-06T16:40:58.717Z,3.30
2023-02-06T16:43:27.596Z,2.78
2023-02-06T16:45:54.336Z,3.00
2023-02-06T16:48:21.085Z,2.80
2023-02-06T16:50:48.190Z,3.95
2023-02-06T16:53:23.220Z,2.95
2023-02-06T16:55:50.116Z,2.88
2023-02-06T16:58:22.333Z,3.17
2023-02-06T17:00:49.647Z,3.27
2023-02-06T17:03:17.846Z,2.70
2023-02-06T17:05:45.681Z,3.20
2023-02-06T17:08:21.922Z,4.07
2023-02-06T17:10:48.772Z,3.85
2023-02-06T17:13:16.989Z,3.75
2023-02-06T17:15:44.366Z,4.35
2023-02-06T17:18:14.473Z,4.10
2023-02-06T17:20:43.399Z,4.38
2023-02-06T17:23:11.134Z,3.38
2023-02-06T17:25:39.471Z,3.40
2023-02-06T17:28:07.647Z,3.28
2023-02-06T17:30:36.198Z,2.92
2023-02-06T17:33:03.821Z,4.03
2023-02-06T17:35:30.928Z,2.90
2023-02-06T17:37:57.697Z,3.03
2023-02-06T17:40:30.838Z,2.90
2023-02-06T17:45:24.788Z,3.47
2023-02-06T17:47:51.904Z,3.30
2023-02-06T17:50:20.683Z,3.33
2023-02-06T17:52:47.483Z,3.50
2023-02-06T17:55:14.609Z,3.80
2023-02-06T17:57:41.697Z,4.07
2023-02-06T18:00:12.516Z,4.72
2023-02-06T18:02:39.318Z,5.55
2023-02-06T18:05:06.395Z,7.00
2023-02-06T18:07:33.087Z,6.20
2023-02-06T18:09:59.796Z,6.30
2023-02-06T18:12:26.618Z,5.80
2023-02-06T18:14:53.373Z,4.82
2023-02-06T18:17:20.144Z,5.65
2023-02-06T18:19:48.421Z,4.75
2023-02-06T18:22:20.625Z,5.63
2023-02-06T18:24:47.817Z,5.87
2023-02-06T18:27:15.029Z,4.97
2023-02-06T18:29:50.131Z,4.93
2023-02-06T18:32:18.249Z,5.22
2023-02-06T18:34:46.444Z,4.28
2023-02-06T18:37:13.152Z,3.92
2023-02-06T18:39:39.896Z,3.47
2023-02-06T18:42:25.290Z,3.60
2023-02-06T18:44:52.034Z,3.40
2023-02-06T18:47:19.887Z,3.83
2023-02-06T18:49:46.927Z,3.20
2023-02-06T18:52:13.714Z,3.28
2023-02-06T18:54:40.497Z,3.58
2023-02-06T18:57:07.782Z,3.38
2023-02-06T18:59:35.289Z,3.70
2023-02-06T19:02:02.552Z,4.07
2023-02-06T19:04:29.896Z,4.13
2023-02-06T19:06:57.012Z,4.38
2023-02-06T19:09:23.872Z,4.90
2023-02-06T19:11:50.589Z,4.20
2023-02-06T19:14:19.853Z,4.40
2023-02-06T19:16:48.162Z,4.40
2023-02-06T19:19:15.226Z,4.55
2023-02-06T19:21:43.465Z,5.22
2023-02-06T19:24:14.699Z,5.05
2023-02-06T19:26:41.893Z,5.05
2023-02-06T19:29:09.036Z,4.43
2023-02-06T19:31:39.224Z,4.90
2023-02-06T19:34:06.562Z,4.53
2023-02-06T19:36:33.411Z,4.82
2023-02-06T19:39:02.515Z,5.53
2023-02-06T19:41:31.339Z,5.80
2023-02-06T19:44:00.564Z,5.60
2023-02-06T19:46:27.660Z,5.72
2023-02-06T19:48:55.091Z,5.53
2023-02-06T19:51:23.996Z,5.53
2023-02-06T19:53:51.704Z,5.43
2023-02-06T19:56:24.625Z,5.72
2023-02-06T19:58:59.660Z,5.85
2023-02-06T20:01:32.243Z,6.60
2023-02-06T20:04:01.686Z,6.68
2023-02-06T20:06:35.243Z,6.78
2023-02-06T20:09:02.963Z,6.28
2023-02-06T20:11:30.592Z,5.20
2023-02-06T20:13:58.429Z,5.70
2023-02-06T20:16:27.201Z,5.55
2023-02-06T20:18:54.725Z,6.60
2023-02-06T20:21:23.003Z,5.75
2023-02-06T20:23:50.058Z,5.72
2023-02-06T20:26:20.638Z,5.68
2023-02-06T20:28:47.957Z,6.50
2023-02-06T20:31:14.803Z,6.82
2023-02-06T20:33:42.229Z,6.25
2023-02-06T20:36:10.918Z,5.72
2023-02-06T20:38:37.838Z,6.05
2023-02-06T20:41:05.717Z,6.60
2023-02-06T20:43:32.985Z,7.15
2023-02-06T20:45:59.939Z,6.90
2023-02-06T20:48:27.265Z,7.35
2023-02-06T20:50:58.433Z,6.57
2023-02-06T20:53:25.227Z,7.30
2023-02-06T20:55:51.999Z,7.20
2023-02-06T20:58:19.473Z,7.60
2023-02-06T21:00:47.140Z,7.70
2023-02-06T21:03:14.332Z,7.70
2023-02-06T21:05:41.059Z,8.25
2023-02-06T21:08:08.452Z,8.23
2023-02-06T21:10:35.788Z,8.73
2023-02-06T21:13:03.310Z,8.10
2023-02-06T21:15:36.978Z,7.70
2023-02-06T21:18:03.909Z,9.50
2023-02-06T21:20:30.709Z,8.43
2023-02-06T21:22:57.583Z,8.00
2023-02-06T21:25:25.965Z,8.27
2023-02-06T21:27:52.831Z,7.53
2023-02-06T21:30:19.855Z,7.60
2023-02-06T21:32:47.784Z,7.65
2023-02-06T21:35:14.506Z,7.72
2023-02-06T21:37:41.355Z,7.47
2023-02-06T21:40:08.512Z,7.47
2023-02-06T21:42:35.446Z,7.25
2023-02-06T21:45:03.620Z,7.32
2023-02-06T21:47:30.410Z,7.28
2023-02-06T21:49:59.196Z,6.15
2023-02-06T21:52:26.006Z,6.93
2023-02-06T21:54:52.792Z,7.03
2023-02-06T21:57:19.620Z,7.32
2023-02-06T21:59:46.425Z,8.45
2023-02-06T22:02:13.597Z,6.90
2023-02-06T22:04:40.373Z,7.47
2023-02-06T22:07:09.346Z,7.22
2023-02-06T22:09:36.159Z,7.60
2023-02-06T22:12:05.623Z,7.25
2023-02-06T22:14:32.503Z,6.85
2023-02-06T22:16:59.275Z,7.90
2023-02-06T22:19:26.137Z,7.32
2023-02-06T22:21:52.856Z,6.78
2023-02-06T22:24:19.848Z,7.30
2023-02-06T22:26:46.537Z,7.70
2023-02-06T22:29:15.816Z,6.90
2023-02-06T22:31:43.879Z,7.47
2023-02-06T22:34:18.076Z,7.30
2023-02-06T22:36:45.227Z,7.20
2023-02-06T22:39:13.085Z,7.45
2023-02-06T22:41:44.659Z,6.97
2023-02-06T22:44:12.602Z,6.85
2023-02-06T22:46:40.327Z,7.75
2023-02-06T22:49:07.791Z,7.50
2023-02-06T22:51:35.419Z,7.60
2023-02-06T22:54:02.730Z,7.65
2023-02-06T22:56:31.867Z,7.97
2023-02-06T22:58:59.973Z,7.93
2023-02-06T23:01:30.685Z,8.07
2023-02-06T23:03:57.914Z,7.63
2023-02-06T23:06:25.902Z,7.60
2023-02-06T23:08:52.647Z,7.72
2023-02-06T23:11:19.802Z,7.82
2023-02-06T23:13:47.454Z,7.85
2023-02-06T23:16:14.329Z,7.95
2023-02-06T23:18:42.464Z,7.80
2023-02-06T23:21:11.207Z,7.53
2023-02-06T23:23:38.630Z,8.10
2023-02-06T23:26:10.103Z,8.43
2023-02-06T23:28:37.323Z,8.23
2023-02-06T23:31:04.784Z,8.10
2023-02-06T23:33:31.792Z,7.53
2023-02-06T23:36:12.615Z,7.22
2023-02-06T23:38:39.830Z,6.68
2023-02-06T23:41:08.631Z,5.97
2023-02-06T23:43:35.371Z,6.20
2023-02-06T23:46:02.530Z,6.00
2023-02-06T23:48:29.284Z,6.07
2023-02-06T23:50:56.746Z,6.45
2023-02-06T23:53:23.600Z,6.43
2023-02-06T23:55:50.645Z,7.45
2023-02-06T23:58:17.550Z,8.43
